Tesouro, Brazil
Current Conditions -  °F | °C
As of 1:00 PM on Thursday 30 Oct 2014 (Local Time) from SBCY Reporting Station
Broken Clouds Broken Clouds  
Wind Chill: 93°   Ceiling: 10000
Heat Index: 99°   Visibility: 6mi
Dew Point: 70°   Wind: 10mph
Humidity: 46%   Direction: 340°NNW
Pressure: 29.83"   Gusts: NA
Location:  16.08°S, 53.55°W
Report Text: SBCY 301600Z 34009KT 9999 SCT020 FEW025TCU BKN100 34/21 Q1010
Loading
Personal Weather Stations






























Interactive Weather Map
Tropical Storm Tracking
New forecast layout! Learn more

10-Day Weather Forecast

Advertisements
Track Severe Weather on mobile